Time;durP1;ratioP1;P1;durP2;ratioP2;P2;SDS_P1;SDS_P2;PMS_P1;PMS_P2;Temp;Humidity;BMP_temperature;BMP_pressure;BME280_temperature;BME280_humidity;BME280_pressure;Samples;Min_cycle;Max_cycle;Signal;HPM_P1;HPM_P2
2023/10/13 00:01:11;;;;;;;20.05;15.18;;;;;;;16.09;100.00;100504.31;7380611;19;21474;-65
2023/10/13 00:03:39;;;;;;;20.48;15.05;;;;;;;16.10;100.00;100497.91;7380271;19;20519;-64
2023/10/13 00:06:08;;;;;;;23.52;16.08;;;;;;;16.10;100.00;100500.56;7381705;19;20372;-64
2023/10/13 00:08:36;;;;;;;22.33;16.25;;;;;;;16.13;100.00;100502.00;7377064;19;20448;-64
2023/10/13 00:11:04;;;;;;;21.25;16.10;;;;;;;16.15;100.00;100505.28;7383166;19;20802;-64
2023/10/13 00:13:41;;;;;;;23.40;16.83;;;;;;;16.16;100.00;100506.94;7383966;19;20336;-64
2023/10/13 00:16:10;;;;;;;24.73;16.20;;;;;;;16.16;100.00;100501.59;7379456;19;20670;-63
2023/10/13 00:18:43;;;;;;;21.35;16.30;;;;;;;16.18;100.00;100499.50;7381320;19;20371;-62
2023/10/13 00:21:15;;;;;;;21.75;15.73;;;;;;;16.20;100.00;100498.25;7382052;19;21019;-64
2023/10/13 00:23:52;;;;;;;17.95;14.32;;;;;;;16.24;100.00;100504.81;7378926;19;20360;-63
2023/10/13 00:26:28;;;;;;;22.40;15.05;;;;;;;16.27;100.00;100492.84;7381881;19;20802;-64
2023/10/13 00:29:01;;;;;;;19.95;14.20;;;;;;;16.29;100.00;100491.59;7378354;19;20393;-63
2023/10/13 00:31:33;;;;;;;18.17;13.68;;;;;;;16.33;100.00;100491.16;7380021;19;20396;-64
2023/10/13 00:34:09;;;;;;;18.75;12.95;;;;;;;16.36;100.00;100496.06;7376952;19;20863;-64
2023/10/13 00:36:36;;;;;;;17.13;12.82;;;;;;;16.39;100.00;100490.28;7377414;19;20700;-64
2023/10/13 00:39:07;;;;;;;17.83;12.70;;;;;;;16.41;100.00;100488.22;7374565;19;20880;-63
2023/10/13 00:41:52;;;;;;;15.98;12.32;;;;;;;16.40;100.00;100491.91;7373908;19;20894;-64
2023/10/13 00:44:35;;;;;;;16.42;12.43;;;;;;;16.41;100.00;100494.38;7370444;19;20372;-63
2023/10/13 00:47:02;;;;;;;15.40;11.70;;;;;;;16.44;100.00;100483.22;7378242;19;20368;-63
2023/10/13 00:49:30;;;;;;;14.63;11.55;;;;;;;16.46;100.00;100483.81;7372050;19;20864;-63
2023/10/13 00:51:57;;;;;;;16.75;11.38;;;;;;;16.50;100.00;100486.91;7379234;19;20376;-63
2023/10/13 00:54:26;;;;;;;15.75;10.93;;;;;;;16.54;100.00;100481.94;7381651;19;20970;-63
2023/10/13 00:57:04;;;;;;;15.13;10.98;;;;;;;16.55;100.00;100473.66;7384448;19;20375;-62
2023/10/13 00:59:35;;;;;;;15.20;11.30;;;;;;;16.58;100.00;100475.91;7386529;19;20360;-63
2023/10/13 01:04:49;;;;;;;14.82;10.80;;;;;;;16.63;100.00;100465.34;7381697;19;20345;-63
2023/10/13 01:07:16;;;;;;;16.47;11.87;;;;;;;16.68;100.00;100470.88;7383965;19;20981;-63
2023/10/13 01:09:43;;;;;;;15.35;10.45;;;;;;;16.69;100.00;100467.16;7382867;19;20404;-64
2023/10/13 01:12:09;;;;;;;16.60;10.88;;;;;;;16.74;100.00;100463.00;7392692;19;20372;-63
2023/10/13 01:14:36;;;;;;;13.93;9.90;;;;;;;16.77;100.00;100462.56;7393549;19;20427;-63
2023/10/13 01:17:03;;;;;;;17.60;11.13;;;;;;;16.82;100.00;100468.91;7392343;19;20359;-63
2023/10/13 01:19:38;;;;;;;14.97;10.77;;;;;;;16.81;100.00;100461.09;7389779;19;20363;-63
2023/10/13 01:22:06;;;;;;;14.63;10.20;;;;;;;16.81;100.00;100466.44;7389723;19;20373;-63
2023/10/13 01:24:36;;;;;;;14.43;10.13;;;;;;;16.84;100.00;100460.66;7388092;19;20376;-63
2023/10/13 01:27:25;;;;;;;13.80;10.07;;;;;;;16.86;100.00;100458.56;7387908;19;20427;-63
2023/10/13 01:29:59;;;;;;;15.05;10.27;;;;;;;16.87;100.00;100454.84;7392887;19;20416;-63
2023/10/13 01:32:25;;;;;;;15.82;10.77;;;;;;;16.87;100.00;100461.03;7391902;19;20440;-63
2023/10/13 01:34:55;;;;;;;14.90;10.50;;;;;;;16.88;100.00;100456.50;7391323;19;20368;-63
2023/10/13 01:37:22;;;;;;;14.65;10.25;;;;;;;16.88;100.00;100451.13;7388195;19;20356;-63
2023/10/13 01:39:50;;;;;;;16.00;10.65;;;;;;;16.90;100.00;100449.06;7390240;19;20712;-63
2023/10/13 01:42:21;;;;;;;14.68;10.35;;;;;;;16.90;100.00;100449.06;7389660;19;20689;-63
2023/10/13 01:44:49;;;;;;;14.85;10.90;;;;;;;16.89;100.00;100440.19;7387144;19;20389;-63
2023/10/13 01:47:16;;;;;;;15.23;10.95;;;;;;;16.90;100.00;100438.34;7389094;19;20409;-63
2023/10/13 01:49:47;;;;;;;13.85;11.18;;;;;;;16.91;100.00;100434.59;7389683;19;20706;-63
2023/10/13 01:52:18;;;;;;;17.75;11.40;;;;;;;16.89;100.00;100436.69;7391045;19;20664;-63
2023/10/13 01:54:50;;;;;;;16.67;11.63;;;;;;;16.88;100.00;100429.69;7385800;19;20364;-63
2023/10/13 01:57:17;;;;;;;17.83;11.25;;;;;;;16.85;100.00;100425.63;7387531;19;20871;-63
2023/10/13 01:59:48;;;;;;;15.80;11.43;;;;;;;16.82;100.00;100430.59;7387378;19;20364;-62
2023/10/13 02:02:28;;;;;;;16.05;11.88;;;;;;;16.81;100.00;100426.25;7389719;19;20361;-63
2023/10/13 02:05:00;;;;;;;15.05;11.63;;;;;;;16.77;100.00;100420.50;7388273;19;20870;-63
2023/10/13 02:07:30;;;;;;;17.08;12.23;;;;;;;16.77;100.00;100425.88;7392096;19;20368;-63
2023/10/13 02:09:58;;;;;;;17.80;13.20;;;;;;;16.78;100.00;100413.28;7390760;19;20348;-63
2023/10/13 02:12:36;;;;;;;17.63;12.57;;;;;;;16.78;100.00;100419.47;7390078;19;20380;-63
2023/10/13 02:15:04;;;;;;;16.15;12.25;;;;;;;16.79;100.00;100420.28;7387097;19;20360;-63
2023/10/13 02:17:41;;;;;;;18.52;12.52;;;;;;;16.79;100.00;100420.28;7388119;19;20528;-63
2023/10/13 02:20:15;;;;;;;20.38;13.15;;;;;;;16.78;100.00;100416.78;7385392;19;20372;-63
2023/10/13 02:22:51;;;;;;;17.57;12.90;;;;;;;16.77;100.00;100406.31;7386604;19;20567;-63
2023/10/13 02:25:35;;;;;;;17.45;13.38;;;;;;;16.73;100.00;100411.28;7385649;19;20373;-64
2023/10/13 02:28:07;;;;;;;17.33;13.50;;;;;;;16.69;100.00;100410.91;7390289;19;20395;-62
2023/10/13 02:30:44;;;;;;;19.27;13.83;;;;;;;16.68;100.00;100398.56;7386523;19;20488;-63
2023/10/13 02:33:12;;;;;;;19.27;14.93;;;;;;;16.69;100.00;100402.06;7389419;19;20686;-64
2023/10/13 02:35:50;;;;;;;20.38;15.10;;;;;;;16.72;100.00;100401.59;7386485;19;20867;-63
2023/10/13 02:38:45;;;;;;;19.98;14.80;;;;;;;16.74;100.00;100404.06;7389043;19;20527;-63
2023/10/13 02:41:09;;;;;;;18.50;14.18;;;;;;;16.76;100.00;100405.47;7386783;19;20320;-63
2023/10/13 02:43:36;;;;;;;19.27;14.30;;;;;;;16.81;100.00;100399.47;7389143;19;20372;-63
2023/10/13 02:46:04;;;;;;;18.60;15.02;;;;;;;16.86;100.00;100383.56;7390312;19;20424;-63
2023/10/13 02:48:40;;;;;;;19.38;14.38;;;;;;;16.90;100.00;100380.19;7391329;19;20339;-63
2023/10/13 02:51:18;;;;;;;17.20;14.25;;;;;;;16.94;100.00;100377.91;7387030;19;20356;-63
2023/10/13 02:53:49;;;;;;;17.38;14.15;;;;;;;16.95;100.00;100387.56;7387703;19;20373;-63
2023/10/13 02:56:22;;;;;;;16.80;13.48;;;;;;;16.98;100.00;100375.56;7385466;19;20848;-63
2023/10/13 02:59:05;;;;;;;17.92;14.15;;;;;;;16.98;100.00;100381.78;7390515;19;20456;-62
2023/10/13 03:01:34;;;;;;;16.37;13.77;;;;;;;17.00;100.00;100378.84;7389113;19;20396;-63
2023/10/13 03:04:12;;;;;;;18.23;13.35;;;;;;;16.99;100.00;100370.00;7386841;19;20776;-63
2023/10/13 03:06:42;;;;;;;17.45;13.05;;;;;;;17.00;100.00;100360.94;7388505;19;20347;-63
2023/10/13 03:09:19;;;;;;;16.50;12.13;;;;;;;16.99;100.00;100353.91;7388829;19;20334;-63
2023/10/13 03:11:49;;;;;;;15.00;12.18;;;;;;;17.00;100.00;100352.88;7386244;19;20504;-63
2023/10/13 03:14:31;;;;;;;15.07;12.40;;;;;;;16.99;100.00;100356.59;7384637;19;20387;-63
2023/10/13 03:17:02;;;;;;;14.07;11.73;;;;;;;17.00;100.00;100358.25;7390356;19;20383;-63
2023/10/13 03:19:32;;;;;;;13.13;11.02;;;;;;;17.01;100.00;100351.84;7388035;19;20450;-63
2023/10/13 03:22:11;;;;;;;14.13;11.18;;;;;;;17.00;100.00;100354.72;7387145;19;20369;-63
2023/10/13 03:24:46;;;;;;;14.02;11.23;;;;;;;17.00;100.00;100347.53;7385337;19;20340;-63
2023/10/13 03:27:22;;;;;;;17.63;11.55;;;;;;;17.00;100.00;100328.78;7388587;19;20335;-63
2023/10/13 03:29:54;;;;;;;17.08;12.20;;;;;;;17.00;100.00;100328.78;7386267;19;20368;-63
2023/10/13 03:32:26;;;;;;;13.45;11.32;;;;;;;17.01;100.00;100327.72;7382658;19;20496;-62
2023/10/13 03:37:38;;;;;;;13.45;11.10;;;;;;;17.01;100.00;100325.03;7387734;19;20377;-63
2023/10/13 03:45:39;;;;;;;12.68;10.20;;;;;;;16.98;100.00;100317.47;7383337;19;20368;-63
2023/10/13 03:51:03;;;;;;;13.20;10.32;;;;;;;16.99;100.00;100311.03;7384666;19;20360;-63
2023/10/13 03:53:34;;;;;;;12.45;9.70;;;;;;;16.99;100.00;100308.38;7386067;19;20424;-63
2023/10/13 03:56:14;;;;;;;12.52;9.23;;;;;;;17.00;100.00;100309.19;7384347;19;20368;-62
2023/10/13 03:58:45;;;;;;;10.55;9.32;;;;;;;17.00;100.00;100299.28;7387414;19;20364;-62
2023/10/13 04:01:16;;;;;;;13.57;9.15;;;;;;;17.05;100.00;100307.47;7386587;19;20355;-63
2023/10/13 04:04:11;;;;;;;11.82;8.45;;;;;;;17.07;100.00;100305.38;7386998;19;20364;-63
2023/10/13 04:17:29;;;;;;;12.23;8.02;;;;;;;17.11;100.00;100295.03;7385116;19;20364;-63
2023/10/13 04:26:07;;;;;;;10.23;8.05;;;;;;;17.12;100.00;100285.94;7383013;19;20438;-63
2023/10/13 04:37:11;;;;;;;8.98;7.50;;;;;;;17.12;100.00;100269.84;7387998;19;20364;-63
2023/10/13 04:41:57;;;;;;;10.98;8.02;;;;;;;17.11;100.00;100258.31;7383899;19;20360;-61
2023/10/13 04:44:48;;;;;;;9.63;7.78;;;;;;;17.11;100.00;100263.69;7383383;19;20377;-61
2023/10/13 04:47:21;;;;;;;9.48;7.93;;;;;;;17.11;100.00;100252.16;7388102;19;20348;-62
2023/10/13 05:04:08;;;;;;;11.25;7.85;;;;;;;17.00;100.00;100232.31;7381726;19;20372;-63
2023/10/13 06:28:41;;;;;;;8.27;6.07;;;;;;;17.40;100.00;100185.28;7394031;19;20707;-67
2023/10/13 06:31:23;;;;;;;11.45;5.70;;;;;;;17.35;100.00;100183.28;7396387;19;20364;-67
2023/10/13 06:33:50;;;;;;;9.40;5.95;;;;;;;17.35;100.00;100177.13;7398590;19;20722;-66
2023/10/13 06:36:17;;;;;;;8.20;6.50;;;;;;;17.33;100.00;100185.41;7398582;19;20432;-66
2023/10/13 06:38:45;;;;;;;6.67;5.63;;;;;;;17.30;100.00;100178.63;7397626;19;20461;-66
2023/10/13 06:41:19;;;;;;;8.77;5.85;;;;;;;17.28;100.00;100178.06;7396285;19;20368;-66
2023/10/13 06:43:58;;;;;;;8.90;6.53;;;;;;;17.30;100.00;100175.16;7398544;19;21001;-66
2023/10/13 06:46:28;;;;;;;8.77;6.18;;;;;;;17.31;100.00;100166.84;7396933;19;20707;-66
2023/10/13 06:48:59;;;;;;;9.05;6.55;;;;;;;17.33;100.00;100153.22;7387179;19;20399;-66
2023/10/13 06:51:30;;;;;;;8.00;6.00;;;;;;;17.36;100.00;100166.16;7395510;19;20379;-66
2023/10/13 06:53:58;;;;;;;7.97;6.13;;;;;;;17.38;100.00;100172.09;7391538;19;20408;-65
2023/10/13 06:56:28;;;;;;;7.65;6.05;;;;;;;17.40;100.00;100159.28;7396354;19;20368;-66
2023/10/13 06:59:04;;;;;;;8.05;5.97;;;;;;;17.38;100.00;100166.72;7396634;19;20357;-66
2023/10/13 07:01:38;;;;;;;9.57;6.43;;;;;;;17.37;100.00;100154.38;7395998;19;20381;-66
2023/10/13 07:04:13;;;;;;;10.48;6.57;;;;;;;17.39;100.00;100165.69;7398374;19;20368;-66
2023/10/13 07:06:48;;;;;;;11.63;6.68;;;;;;;17.42;100.00;100157.19;7394249;19;20352;-66
2023/10/13 07:09:39;;;;;;;10.45;6.22;;;;;;;17.44;100.00;100165.00;7393875;19;20387;-66
2023/10/13 07:12:16;;;;;;;8.40;6.43;;;;;;;17.44;100.00;100165.81;7393038;19;20385;-66
2023/10/13 07:14:54;;;;;;;8.63;6.35;;;;;;;17.48;100.00;100150.88;7397459;19;20428;-66
2023/10/13 07:17:24;;;;;;;9.17;6.07;;;;;;;17.49;100.00;100149.84;7392010;19;20361;-66
2023/10/13 07:19:53;;;;;;;8.02;6.53;;;;;;;17.55;100.00;100139.22;7393285;19;20718;-66
2023/10/13 07:22:20;;;;;;;8.17;6.40;;;;;;;17.57;100.00;100126.41;7393387;19;20697;-66
2023/10/13 07:24:49;;;;;;;9.77;6.72;;;;;;;17.56;100.00;100130.16;7393642;19;20356;-66
2023/10/13 07:27:23;;;;;;;8.77;6.00;;;;;;;17.59;100.00;100132.34;7394998;19;20393;-66
2023/10/13 07:30:14;;;;;;;9.40;5.90;;;;;;;17.61;100.00;100128.38;7394785;19;20357;-66
2023/10/13 07:32:49;;;;;;;9.57;6.57;;;;;;;17.65;100.00;100121.47;7393761;19;20443;-66
2023/10/13 07:35:19;;;;;;;8.75;6.30;;;;;;;17.67;100.00;100122.06;7394357;19;20710;-65
2023/10/13 07:37:52;;;;;;;9.32;6.20;;;;;;;17.71;100.00;100122.41;7396289;19;20694;-66
2023/10/13 07:43:00;;;;;;;7.90;5.97;;;;;;;17.77;100.00;100104.56;7393374;19;20364;-65
2023/10/13 07:45:35;;;;;;;8.48;5.95;;;;;;;17.79;100.00;100087.19;7389328;19;20353;-65
2023/10/13 07:48:12;;;;;;;12.05;6.55;;;;;;;17.82;100.00;100080.53;7395700;19;20488;-66
2023/10/13 07:50:40;;;;;;;7.72;6.35;;;;;;;17.88;100.00;100079.59;7392464;19;20859;-65
2023/10/13 07:53:20;;;;;;;8.37;5.93;;;;;;;17.90;100.00;100072.94;7389303;19;20442;-66
2023/10/13 07:55:46;;;;;;;11.00;6.60;;;;;;;17.91;100.00;100069.22;7393318;19;20439;-66
2023/10/13 07:58:13;;;;;;;11.45;6.82;;;;;;;17.89;100.00;100059.75;7394767;19;20367;-65
2023/10/13 08:05:57;;;;;;;11.23;6.28;;;;;;;17.93;100.00;100056.34;7394246;19;20400;-66
2023/10/13 08:08:39;;;;;;;11.70;6.28;;;;;;;18.00;100.00;100060.75;7390505;19;20403;-66
2023/10/13 08:13:55;;;;;;;9.18;5.53;;;;;;;18.03;100.00;100049.56;7394951;19;20880;-65
2023/10/13 08:30:26;;;;;;;8.52;4.53;;;;;;;18.58;100.00;100051.59;7392840;19;20382;-64
2023/10/13 08:32:59;;;;;;;8.68;4.70;;;;;;;18.66;100.00;100053.88;7391318;19;20377;-65
2023/10/13 08:43:44;;;;;;;5.75;3.95;;;;;;;18.86;100.00;100036.47;7392619;19;20364;-65
2023/10/13 08:46:24;;;;;;;5.93;3.80;;;;;;;18.87;100.00;100043.47;7388428;19;20367;-65
2023/10/13 08:49:08;;;;;;;9.57;4.00;;;;;;;18.92;100.00;100043.56;7388501;19;20388;-65
2023/10/13 08:52:04;;;;;;;6.35;3.55;;;;;;;18.92;100.00;100025.56;7386546;19;20682;-65
2023/10/13 08:55:04;;;;;;;5.90;3.40;;;;;;;19.05;100.00;100051.28;7387336;19;20722;-65
2023/10/13 08:57:33;;;;;;;4.93;3.40;;;;;;;19.18;100.00;100049.31;7389829;19;20974;-65
2023/10/13 09:00:27;;;;;;;4.90;3.30;;;;;;;19.21;100.00;100046.13;7391672;19;20454;-65
2023/10/13 09:02:59;;;;;;;7.13;2.90;;;;;;;19.27;100.00;100047.81;7393170;19;20391;-65
2023/10/13 09:06:00;;;;;;;6.55;2.80;;;;;;;19.27;100.00;100050.50;7392043;19;20349;-64
2023/10/13 09:09:03;;;;;;;6.10;2.75;;;;;;;19.38;100.00;100054.13;7392198;19;20364;-65
2023/10/13 09:11:37;;;;;;;5.93;2.80;;;;;;;19.37;100.00;100053.34;7389511;19;20496;-64
2023/10/13 09:14:25;;;;;;;4.38;2.92;;;;;;;19.37;100.00;100056.03;7388751;19;20705;-65
2023/10/13 09:17:07;;;;;;;3.75;2.75;;;;;;;19.40;100.00;100055.50;7393441;19;20408;-65
2023/10/13 09:19:47;;;;;;;4.68;2.70;;;;;;;19.43;100.00;100046.97;7394130;19;20367;-65
2023/10/13 09:22:42;;;;;;;3.80;2.65;;;;;;;19.47;99.90;100047.28;7389372;19;20354;-65
2023/10/13 09:25:13;;;;;;;5.00;2.75;;;;;;;19.59;99.75;100039.06;7391106;19;20418;-66
2023/10/13 09:27:40;;;;;;;5.00;2.58;;;;;;;19.75;99.52;100032.84;7391936;19;20381;-65
2023/10/13 09:30:20;;;;;;;5.00;2.80;;;;;;;19.85;98.54;100038.34;7392991;19;22279;-64
2023/10/13 09:33:01;;;;;;;4.68;2.45;;;;;;;19.98;98.07;100028.22;7394984;19;20453;-65
2023/10/13 09:35:31;;;;;;;3.90;2.40;;;;;;;20.14;98.41;100019.25;7401965;19;20335;-65
2023/10/13 09:38:03;;;;;;;4.97;2.60;;;;;;;20.24;97.26;100003.19;7401278;19;20344;-65
2023/10/13 09:43:07;;;;;;;5.47;2.50;;;;;;;20.44;95.10;99999.84;7402360;19;20376;-64
2023/10/13 09:48:26;;;;;;;6.55;2.45;;;;;;;20.67;94.12;99979.84;7400808;19;20351;-64
2023/10/13 09:50:57;;;;;;;6.37;2.53;;;;;;;20.79;93.86;99965.38;7399307;19;20372;-64
2023/10/13 09:53:25;;;;;;;4.75;2.38;;;;;;;20.90;92.31;99964.34;7393940;19;20512;-64
2023/10/13 09:56:11;;;;;;;7.93;2.58;;;;;;;20.98;91.77;99958.47;7398056;19;20340;-64
2023/10/13 09:58:47;;;;;;;5.03;2.42;;;;;;;21.11;90.86;99943.69;7400110;19;20431;-64
2023/10/13 10:01:31;;;;;;;4.53;2.30;;;;;;;21.24;89.80;99939.69;7396836;19;20439;-64
2023/10/13 10:04:13;;;;;;;5.72;2.65;;;;;;;21.40;89.30;99944.09;7401905;19;20351;-64
2023/10/13 10:06:44;;;;;;;5.35;2.47;;;;;;;21.52;88.81;99935.75;7398261;19;20354;-64
2023/10/13 10:09:12;;;;;;;4.13;2.50;;;;;;;21.57;87.51;99933.09;7397605;19;20332;-64
2023/10/13 10:11:48;;;;;;;5.65;2.25;;;;;;;21.66;86.56;99938.78;7392484;19;20673;-64
2023/10/13 10:14:24;;;;;;;10.25;2.80;;;;;;;21.79;86.96;99922.06;7399815;19;20915;-64
2023/10/13 10:17:08;;;;;;;6.43;2.47;;;;;;;21.87;85.80;99918.81;7399008;19;20848;-65
2023/10/13 10:19:49;;;;;;;6.28;2.08;;;;;;;21.99;86.35;99919.38;7399883;19;20691;-65
2023/10/13 10:22:39;;;;;;;6.90;2.42;;;;;;;22.07;86.91;99909.91;7397299;19;20433;-65
2023/10/13 10:25:06;;;;;;;4.25;2.15;;;;;;;22.07;85.55;99903.72;7398332;19;20689;-65
2023/10/13 10:27:34;;;;;;;6.18;2.30;;;;;;;22.12;86.00;99892.88;7396474;19;20749;-64
2023/10/13 10:30:03;;;;;;;7.43;2.40;;;;;;;22.13;85.86;99891.81;7397855;19;20364;-64
2023/10/13 10:32:40;;;;;;;7.07;2.50;;;;;;;22.17;84.92;99895.59;7396829;19;20376;-64
2023/10/13 10:35:20;;;;;;;7.68;2.90;;;;;;;22.10;84.76;99876.13;7398138;19;20353;-64
2023/10/13 10:37:47;;;;;;;6.45;2.70;;;;;;;22.22;85.11;99879.38;7397511;19;20363;-65
2023/10/13 10:40:32;;;;;;;7.32;2.63;;;;;;;22.31;84.53;99883.16;7398408;19;20432;-64
2023/10/13 10:43:01;;;;;;;7.07;2.70;;;;;;;22.40;84.63;99867.22;7396684;19;20356;-64
2023/10/13 10:45:37;;;;;;;8.45;2.83;;;;;;;22.45;83.29;99878.03;7399452;19;20828;-64
2023/10/13 10:48:17;;;;;;;6.90;2.63;;;;;;;22.44;82.47;99872.88;7392539;19;20356;-64
2023/10/13 10:50:53;;;;;;;8.15;3.00;;;;;;;22.43;81.05;99873.97;7396658;19;20368;-62
2023/10/13 10:53:33;;;;;;;7.88;2.67;;;;;;;22.49;80.75;99864.78;7395118;19;20385;-63
2023/10/13 10:56:52;;;;;;;7.88;3.13;;;;;;;22.57;80.50;99848.81;7387031;19;20438;-64
2023/10/13 10:58:59;;;;;;;8.38;2.80;;;;;;;22.75;79.66;99844.66;7394921;19;20458;-63
2023/10/13 11:01:33;;;;;;;9.10;3.00;;;;;;;;;;7395266;19;20428;-63
2023/10/13 11:04:09;;;;;;;8.60;3.03;;;;;;;23.00;77.83;99851.91;7395344;19;20356;-63
2023/10/13 11:06:42;;;;;;;8.43;3.10;;;;;;;23.17;78.39;99838.00;7396043;19;20431;-63
2023/10/13 11:09:18;;;;;;;11.93;3.00;;;;;;;23.29;75.88;99826.03;7395894;19;20373;-63
2023/10/13 11:11:46;;;;;;;8.85;2.95;;;;;;;23.43;76.00;99827.00;7393941;19;20888;-64
2023/10/13 11:14:22;;;;;;;7.35;3.03;;;;;;;23.61;74.99;99839.88;7394891;19;20465;-63
2023/10/13 11:16:53;;;;;;;5.97;3.00;;;;;;;23.70;73.54;99823.84;7394298;19;20361;-64
2023/10/13 11:19:25;;;;;;;9.07;3.10;;;;;;;23.83;72.95;99819.69;7396801;19;20870;-64
2023/10/13 11:21:57;;;;;;;6.57;3.00;;;;;;;23.98;72.76;99822.25;7392004;19;20876;-64
2023/10/13 11:24:24;;;;;;;10.93;3.47;;;;;;;24.01;73.11;99816.28;7392892;19;20369;-64
2023/10/13 11:26:52;;;;;;;12.95;3.38;;;;;;;24.04;72.77;99824.94;7393731;19;20968;-63
2023/10/13 11:29:19;;;;;;;11.07;3.63;;;;;;;24.27;72.19;99818.72;7393910;19;20348;-64
2023/10/13 11:31:57;;;;;;;7.40;2.90;;;;;;;24.36;71.21;99838.69;7394596;19;20413;-63
2023/10/13 11:34:25;;;;;;;9.95;3.50;;;;;;;24.33;70.61;99816.75;7390301;19;20695;-63
2023/10/13 11:36:52;;;;;;;11.40;3.53;;;;;;;24.37;70.65;99813.16;7390003;19;20356;-63
2023/10/13 11:39:24;;;;;;;11.32;3.20;;;;;;;24.34;71.31;99802.13;7390314;19;20480;-64
2023/10/13 11:41:54;;;;;;;9.15;4.03;;;;;;;24.36;69.25;99808.88;7386681;19;20371;-63
2023/10/13 11:51:46;;;;;;;8.43;3.40;;;;;;;24.42;69.03;99777.88;7394723;19;20908;-63
2023/10/13 11:54:15;;;;;;;9.02;3.50;;;;;;;24.27;69.08;99764.53;7393359;19;20385;-63
2023/10/13 11:56:42;;;;;;;10.63;3.50;;;;;;;24.22;68.50;99773.50;7392081;19;20393;-63
2023/10/13 11:59:17;;;;;;;11.55;3.80;;;;;;;24.15;68.42;99788.50;7395203;19;20344;-63
2023/10/13 12:07:27;;;;;;;8.48;3.35;;;;;;;24.09;68.83;99781.53;7393216;19;20360;-64
2023/10/13 12:12:25;;;;;;;11.17;3.43;;;;;;;24.27;67.92;99750.16;7394639;19;20447;-63
2023/10/13 12:14:52;;;;;;;7.57;3.42;;;;;;;24.48;68.06;99769.69;7390099;19;20364;-62
2023/10/13 12:17:24;;;;;;;10.07;3.50;;;;;;;24.57;67.70;99754.44;7392684;19;20340;-63
2023/10/13 12:19:52;;;;;;;9.23;3.38;;;;;;;24.63;67.92;99739.72;7381909;19;20386;-62
2023/10/13 12:22:35;;;;;;;10.02;3.65;;;;;;;24.62;66.84;99727.25;7392202;19;20379;-63
2023/10/13 12:25:18;;;;;;;9.00;3.23;;;;;;;24.71;66.13;99747.16;7393251;19;20856;-62
2023/10/13 12:27:50;;;;;;;9.25;3.90;;;;;;;24.69;66.62;99719.53;7393027;19;20360;-61
2023/10/13 12:30:22;;;;;;;9.38;3.58;;;;;;;24.66;66.46;99722.84;7395195;19;20365;-62
2023/10/13 12:33:08;;;;;;;13.07;3.80;;;;;;;24.48;66.57;99724.44;7390028;19;20360;-62
2023/10/13 12:35:58;;;;;;;7.38;3.25;;;;;;;24.54;66.61;99720.56;7385583;19;20875;-62
2023/10/13 12:52:25;;;;;;;9.43;3.67;;;;;;;24.33;67.31;99694.78;7391555;19;20902;-62
2023/10/13 12:55:05;;;;;;;8.97;3.47;;;;;;;24.25;66.86;99701.69;7388194;19;20374;-62
2023/10/13 12:57:33;;;;;;;7.90;3.33;;;;;;;24.20;66.08;99685.47;7388726;19;21071;-61
2023/10/13 13:00:01;;;;;;;9.48;3.60;;;;;;;24.11;66.30;99668.25;7391653;19;20848;-61
2023/10/13 13:02:29;;;;;;;10.57;3.97;;;;;;;24.01;66.63;99686.25;7386380;19;20875;-63
2023/10/13 13:05:02;;;;;;;11.60;3.78;;;;;;;24.08;66.39;99674.22;7390185;19;20333;-62
2023/10/13 13:07:29;;;;;;;10.60;4.17;;;;;;;24.06;65.72;99671.03;7387301;19;20352;-62
2023/10/13 13:09:59;;;;;;;10.13;3.95;;;;;;;24.10;65.15;99682.88;7391510;19;20377;-62
2023/10/13 13:12:28;;;;;;;12.05;4.38;;;;;;;24.18;64.73;99674.09;7388192;19;20352;-63
2023/10/13 13:14:55;;;;;;;9.67;4.03;;;;;;;24.24;64.67;99666.72;7386087;19;20479;-62
2023/10/13 13:17:22;;;;;;;10.23;3.92;;;;;;;24.25;64.34;99673.75;7388116;19;20368;-62
2023/10/13 13:19:49;;;;;;;11.43;4.07;;;;;;;24.33;63.21;99664.97;7386557;19;20357;-62
2023/10/13 13:22:17;;;;;;;12.63;3.73;;;;;;;24.39;62.96;99663.81;7388225;19;20356;-62
2023/10/13 13:24:45;;;;;;;9.68;3.65;;;;;;;24.53;62.25;99653.88;7391119;19;20367;-62
2023/10/13 13:27:14;;;;;;;7.65;3.60;;;;;;;24.76;61.68;99660.31;7390276;19;20351;-63
2023/10/13 13:29:41;;;;;;;11.38;3.83;;;;;;;25.08;61.59;99675.03;7387099;19;20348;-62
2023/10/13 13:32:18;;;;;;;9.98;3.63;;;;;;;25.30;60.78;99657.31;7387156;19;20360;-62
2023/10/13 13:34:54;;;;;;;10.60;4.25;;;;;;;25.37;60.28;99642.22;7386669;19;20684;-62
2023/10/13 13:37:22;;;;;;;10.57;3.60;;;;;;;25.36;59.93;99639.84;7388539;19;20384;-62
2023/10/13 13:39:52;;;;;;;7.88;3.65;;;;;;;25.33;60.94;99638.53;7390220;19;20701;-62
2023/10/13 13:42:20;;;;;;;9.40;3.85;;;;;;;25.11;60.81;99636.41;7390329;19;20930;-63
2023/10/13 13:44:47;;;;;;;9.10;4.20;;;;;;;25.06;61.00;99641.16;7388184;19;20367;-63
2023/10/13 13:47:15;;;;;;;10.13;4.30;;;;;;;25.05;61.37;99625.97;7387417;19;20435;-63
2023/10/13 13:49:50;;;;;;;10.43;4.00;;;;;;;25.09;62.29;99611.50;7384230;19;20392;-60
2023/10/13 13:52:23;;;;;;;10.68;3.97;;;;;;;25.11;62.39;99613.91;7390269;19;20352;-63
2023/10/13 13:54:49;;;;;;;10.73;4.22;;;;;;;25.09;62.55;99616.91;7388504;19;20367;-63
2023/10/13 13:57:17;;;;;;;10.43;4.20;;;;;;;25.01;62.86;99612.16;7390566;19;20348;-62
2023/10/13 13:59:45;;;;;;;13.67;3.80;;;;;;;25.19;61.44;99602.38;7391139;19;20369;-62
2023/10/13 14:02:30;;;;;;;10.30;3.90;;;;;;;25.18;61.42;99614.31;7386330;19;20360;-63
2023/10/13 14:04:57;;;;;;;10.23;4.13;;;;;;;25.33;61.96;99605.13;7389897;19;20356;-62
2023/10/13 14:07:24;;;;;;;11.10;3.87;;;;;;;25.45;61.46;99605.44;7386896;19;20368;-62
2023/10/13 14:09:51;;;;;;;10.60;3.80;;;;;;;25.86;61.08;99596.47;7387119;19;20380;-63
2023/10/13 14:14:57;;;;;;;10.27;3.60;;;;;;;26.71;58.39;99601.44;7389126;19;20376;-63
2023/10/13 14:17:35;;;;;;;9.38;3.75;;;;;;;27.15;56.93;99586.97;7387703;19;20368;-63
2023/10/13 14:20:15;;;;;;;11.38;3.85;;;;;;;27.55;55.02;99591.66;7397897;19;20420;-62
2023/10/13 14:22:41;;;;;;;8.32;3.63;;;;;;;27.75;53.73;99582.88;7396090;19;20905;-63
2023/10/13 14:25:14;;;;;;;10.07;3.65;;;;;;;27.70;54.26;99569.44;7395570;19;20869;-62
2023/10/13 14:27:42;;;;;;;10.48;3.70;;;;;;;27.39;53.30;99585.81;7391893;19;20899;-62
2023/10/13 14:30:09;;;;;;;14.48;3.72;;;;;;;27.26;53.49;99571.19;7395579;19;20871;-62
2023/10/13 14:32:40;;;;;;;7.60;3.58;;;;;;;27.43;54.02;99576.72;7394958;19;20365;-63
2023/10/13 14:35:16;;;;;;;9.77;4.03;;;;;;;27.71;53.48;99578.41;7394931;19;20450;-63
2023/10/13 14:37:43;;;;;;;11.10;4.20;;;;;;;27.83;52.75;99573.13;7396460;19;20703;-63
2023/10/13 14:40:15;;;;;;;9.68;3.75;;;;;;;27.95;52.45;99575.28;7398129;19;20367;-63
2023/10/13 14:42:42;;;;;;;11.95;4.07;;;;;;;28.06;51.14;99588.28;7394353;19;20387;-63
2023/10/13 14:45:12;;;;;;;14.32;4.13;;;;;;;28.19;51.75;99569.38;7392320;19;20372;-62
2023/10/13 14:47:40;;;;;;;9.20;3.83;;;;;;;28.26;50.63;99564.22;7393766;19;20356;-62
2023/10/13 14:50:17;;;;;;;8.15;3.75;;;;;;;28.37;50.55;99584.63;7396771;19;20379;-63
2023/10/13 14:52:44;;;;;;;9.60;3.77;;;;;;;28.32;50.01;99568.41;7388346;19;20388;-63
2023/10/13 14:55:19;;;;;;;9.07;3.70;;;;;;;28.16;49.96;99570.00;7397325;19;20376;-63
2023/10/13 14:57:50;;;;;;;9.20;3.42;;;;;;;28.02;50.04;99570.16;7396045;19;20343;-63
2023/10/13 15:00:24;;;;;;;9.95;3.40;;;;;;;28.00;50.70;99559.56;7397095;19;20368;-62
2023/10/13 15:02:55;;;;;;;10.85;3.45;;;;;;;27.83;50.73;99564.97;7390858;19;20375;-63
2023/10/13 15:05:22;;;;;;;11.25;4.55;;;;;;;27.42;51.07;99569.66;7393918;19;20805;-63
2023/10/13 15:07:51;;;;;;;12.07;3.92;;;;;;;27.18;51.52;99558.31;7392867;19;20364;-63
2023/10/13 15:10:18;;;;;;;10.52;3.60;;;;;;;26.84;51.90;99576.88;7393726;19;21055;-63
2023/10/13 15:12:45;;;;;;;10.02;4.05;;;;;;;26.58;52.09;99573.19;7392120;19;20772;-62